createdAt,value
2018-05-27T00:01:17.136Z,18.83
2018-05-27T00:03:47.267Z,19.05
2018-05-27T00:06:16.882Z,19.32
2018-05-27T00:08:47.848Z,19.19
2018-05-27T00:11:17.679Z,18.91
2018-05-27T00:13:47.650Z,18.59
2018-05-27T00:16:20.753Z,18.32
2018-05-27T00:18:51.608Z,18.13
2018-05-27T00:21:21.615Z,18.01
2018-05-27T00:23:51.445Z,18.01
2018-05-27T00:26:21.084Z,18.00
2018-05-27T00:28:50.882Z,18.15
2018-05-27T00:31:21.195Z,18.08
2018-05-27T00:33:51.815Z,18.22
2018-05-27T00:36:21.503Z,18.37
2018-05-27T00:38:51.179Z,18.55
2018-05-27T00:41:21.050Z,18.68
2018-05-27T00:43:50.770Z,18.85
2018-05-27T00:46:20.497Z,19.06
2018-05-27T00:48:50.321Z,18.91
2018-05-27T00:51:20.926Z,18.83
2018-05-27T00:54:01.054Z,18.76
2018-05-27T00:56:30.877Z,18.65
2018-05-27T00:59:01.149Z,18.59
2018-05-27T01:01:32.133Z,18.51
2018-05-27T01:04:02.309Z,18.53
2018-05-27T01:06:31.955Z,18.58
2018-05-27T01:09:02.993Z,18.66
2018-05-27T01:11:32.808Z,18.74
2018-05-27T01:14:02.883Z,18.77
2018-05-27T01:16:32.773Z,18.81
2018-05-27T01:19:03.504Z,18.84
2018-05-27T01:21:33.663Z,18.87
2018-05-27T01:24:04.154Z,18.90
2018-05-27T01:26:33.880Z,18.91
2018-05-27T01:29:07.266Z,18.79
2018-05-27T01:31:38.920Z,18.64
2018-05-27T01:34:08.523Z,18.60
2018-05-27T01:36:38.588Z,18.66
2018-05-27T01:39:14.490Z,18.55
2018-05-27T01:41:45.884Z,18.48
2018-05-27T01:44:15.744Z,18.46
2018-05-27T01:46:45.630Z,18.44
2018-05-27T01:49:15.254Z,18.40
2018-05-27T01:51:45.423Z,18.34
2018-05-27T01:54:16.233Z,18.32
2018-05-27T01:56:46.212Z,18.35
2018-05-27T01:59:15.788Z,18.32
2018-05-27T02:01:45.712Z,18.22
2018-05-27T02:04:16.425Z,18.12
2018-05-27T02:06:46.728Z,18.01
2018-05-27T02:09:16.359Z,17.92
2018-05-27T02:11:47.031Z,17.90
2018-05-27T02:14:16.672Z,17.93
2018-05-27T02:16:46.670Z,17.89
2018-05-27T02:19:16.301Z,17.90
2018-05-27T02:21:46.954Z,17.93
2018-05-27T02:24:17.671Z,17.95
2018-05-27T02:26:47.530Z,17.96
2018-05-27T02:29:17.209Z,17.91
2018-05-27T02:31:46.740Z,17.88
2018-05-27T02:34:17.961Z,17.95
2018-05-27T02:36:48.636Z,17.85
2018-05-27T02:39:19.031Z,17.81
2018-05-27T02:42:11.236Z,17.82
2018-05-27T02:44:41.991Z,17.69
2018-05-27T02:47:12.171Z,17.43
2018-05-27T02:49:42.727Z,17.32
2018-05-27T02:52:12.568Z,17.30
2018-05-27T02:54:42.395Z,17.30
2018-05-27T02:57:12.601Z,17.15
2018-05-27T02:59:42.328Z,17.17
2018-05-27T03:02:12.155Z,17.25
2018-05-27T03:04:42.835Z,17.20
2018-05-27T03:07:13.863Z,17.11
2018-05-27T03:09:43.710Z,17.09
2018-05-27T03:12:13.540Z,17.16
2018-05-27T03:14:43.254Z,17.43
2018-05-27T03:17:12.728Z,17.80
2018-05-27T03:19:42.359Z,18.05
2018-05-27T03:22:12.056Z,18.05
2018-05-27T03:24:41.974Z,17.93
2018-05-27T03:27:11.541Z,17.78
2018-05-27T03:29:41.200Z,17.84
2018-05-27T03:32:11.808Z,17.89
2018-05-27T03:34:41.300Z,17.84
2018-05-27T03:37:11.555Z,17.93
2018-05-27T03:39:41.012Z,17.96
2018-05-27T03:42:11.572Z,17.91
2018-05-27T03:44:41.077Z,17.89
2018-05-27T03:47:10.892Z,17.86
2018-05-27T03:49:40.349Z,17.96
2018-05-27T03:52:09.826Z,18.05
2018-05-27T03:54:39.639Z,18.14
2018-05-27T03:57:09.454Z,18.50
2018-05-27T03:59:38.975Z,18.50
2018-05-27T04:02:08.478Z,18.47
2018-05-27T04:05:06.213Z,18.45
2018-05-27T04:10:42.500Z,18.72
2018-05-27T04:13:12.241Z,18.80
2018-05-27T04:15:41.830Z,18.86
2018-05-27T04:18:11.541Z,18.88
2018-05-27T04:20:41.097Z,18.91
2018-05-27T04:23:10.807Z,18.95
2018-05-27T04:25:40.356Z,18.99
2018-05-27T04:28:09.915Z,19.04
2018-05-27T04:30:40.167Z,19.11
2018-05-27T04:33:09.791Z,19.03
2018-05-27T04:35:39.319Z,18.88
2018-05-27T04:38:08.933Z,19.03
2018-05-27T04:40:38.639Z,19.15
2018-05-27T04:43:08.227Z,19.37
2018-05-27T04:45:37.775Z,19.80
2018-05-27T04:48:07.429Z,19.99
2018-05-27T04:50:37.062Z,20.05
2018-05-27T04:53:06.550Z,20.05
2018-05-27T04:55:36.154Z,20.13
2018-05-27T04:58:05.670Z,20.29
2018-05-27T05:00:35.194Z,20.49
2018-05-27T05:03:04.923Z,20.63
2018-05-27T05:05:34.405Z,20.81
2018-05-27T05:08:04.096Z,20.95
2018-05-27T05:10:33.708Z,21.02
2018-05-27T05:13:04.011Z,21.00
2018-05-27T05:15:34.585Z,21.02
2018-05-27T05:18:04.161Z,21.09
2018-05-27T05:20:33.777Z,21.22
2018-05-27T05:23:03.392Z,21.41
2018-05-27T05:25:32.885Z,21.75
2018-05-27T05:28:02.739Z,22.00
2018-05-27T05:30:32.276Z,22.40
2018-05-27T05:33:02.333Z,22.46
2018-05-27T05:35:32.580Z,22.69
2018-05-27T05:38:02.501Z,22.79
2018-05-27T05:40:32.925Z,22.75
2018-05-27T05:43:02.733Z,22.80
2018-05-27T05:45:32.317Z,22.68
2018-05-27T05:48:02.671Z,22.56
2018-05-27T05:50:32.359Z,22.23
2018-05-27T05:53:02.485Z,22.35
2018-05-27T05:55:33.608Z,22.91
2018-05-27T05:58:03.372Z,23.24
2018-05-27T06:00:33.168Z,23.61
2018-05-27T06:03:03.209Z,23.57
2018-05-27T06:05:33.610Z,23.43
2018-05-27T06:08:04.561Z,23.28
2018-05-27T06:10:34.083Z,23.17
2018-05-27T06:13:03.569Z,23.01
2018-05-27T06:15:35.272Z,22.97
2018-05-27T06:18:05.352Z,22.89
2018-05-27T06:20:35.020Z,22.84
2018-05-27T06:23:04.567Z,22.90
2018-05-27T06:25:34.163Z,23.00
2018-05-27T06:28:06.889Z,23.17
2018-05-27T06:30:39.415Z,23.29
2018-05-27T06:33:09.161Z,23.36
2018-05-27T06:35:40.572Z,23.27
2018-05-27T06:38:17.661Z,23.48
2018-05-27T06:40:47.198Z,23.70
2018-05-27T06:43:16.713Z,23.65
2018-05-27T06:45:47.645Z,23.87
2018-05-27T06:48:19.050Z,23.72
2018-05-27T06:50:49.647Z,23.57
2018-05-27T06:53:20.044Z,23.62
2018-05-27T06:55:49.646Z,23.90
2018-05-27T06:58:20.468Z,24.18
2018-05-27T07:00:53.296Z,24.29
2018-05-27T07:03:23.596Z,24.41
2018-05-27T07:06:05.405Z,24.28
2018-05-27T07:08:38.160Z,24.46
2018-05-27T07:11:13.584Z,23.86
2018-05-27T07:13:46.610Z,23.63
2018-05-27T07:16:21.722Z,23.69
2018-05-27T07:18:51.650Z,24.00
2018-05-27T07:21:29.687Z,24.15
2018-05-27T07:24:01.721Z,24.20
2018-05-27T07:26:32.748Z,24.29
2018-05-27T07:29:03.840Z,24.64
2018-05-27T07:31:34.579Z,25.31
2018-05-27T07:37:41.420Z,26.27
2018-05-27T07:40:14.238Z,26.33
2018-05-27T07:42:58.256Z,26.67
2018-05-27T07:45:39.782Z,27.47
2018-05-27T07:48:09.300Z,28.17
2018-05-27T07:50:38.961Z,28.60
2018-05-27T07:53:09.515Z,28.64
2018-05-27T07:55:39.907Z,28.49
2018-05-27T07:58:11.703Z,28.75
2018-05-27T08:00:41.234Z,29.05
2018-05-27T08:03:10.833Z,28.99
2018-05-27T08:05:41.801Z,28.70
2018-05-27T08:08:12.076Z,28.48
2018-05-27T08:10:41.895Z,28.50
2018-05-27T08:13:11.430Z,28.67
2018-05-27T08:15:41.865Z,27.97
2018-05-27T08:18:12.525Z,28.20
2018-05-27T08:20:42.194Z,28.28
2018-05-27T08:23:12.450Z,27.23
2018-05-27T08:25:41.979Z,27.04
2018-05-27T08:28:11.546Z,27.58
2018-05-27T08:30:42.009Z,27.50
2018-05-27T08:33:11.517Z,27.64
2018-05-27T08:35:41.242Z,27.90
2018-05-27T08:38:10.884Z,27.78
2018-05-27T08:40:40.562Z,28.28
2018-05-27T08:43:10.168Z,28.43
2018-05-27T08:45:39.708Z,28.51
2018-05-27T08:48:09.647Z,28.29
2018-05-27T08:50:40.346Z,29.19
2018-05-27T08:53:10.462Z,28.86
2018-05-27T08:55:40.076Z,27.73
2018-05-27T08:58:09.624Z,28.18
2018-05-27T09:00:39.335Z,27.71
2018-05-27T09:03:09.095Z,26.30
2018-05-27T09:05:38.871Z,26.93
2018-05-27T09:08:09.860Z,27.06
2018-05-27T09:10:39.523Z,26.97
2018-05-27T09:13:09.890Z,27.43
2018-05-27T09:15:39.394Z,27.52
2018-05-27T09:18:09.253Z,28.25
2018-05-27T09:20:38.872Z,28.68
2018-05-27T09:23:08.581Z,28.50
2018-05-27T09:25:38.297Z,28.92
2018-05-27T09:28:07.835Z,27.17
2018-05-27T09:30:37.553Z,27.00
2018-05-27T09:33:06.974Z,26.56
2018-05-27T09:35:36.667Z,26.74
2018-05-27T09:38:06.145Z,26.36
2018-05-27T09:40:37.086Z,26.69
2018-05-27T09:43:07.399Z,26.73
2018-05-27T09:45:36.898Z,25.81
2018-05-27T09:48:06.495Z,26.06
2018-05-27T09:50:36.182Z,26.47
2018-05-27T09:53:05.684Z,26.88
2018-05-27T09:55:35.427Z,27.37
2018-05-27T09:58:04.982Z,25.92
2018-05-27T10:00:35.403Z,26.85
2018-05-27T10:03:04.876Z,27.34
2018-05-27T10:05:34.478Z,27.22
2018-05-27T10:08:15.047Z,26.13
2018-05-27T10:10:44.983Z,26.14
2018-05-27T10:13:15.263Z,26.51
2018-05-27T10:15:46.115Z,26.28
2018-05-27T10:18:15.678Z,25.52
2018-05-27T10:20:45.274Z,25.65
2018-05-27T10:23:14.901Z,25.71
2018-05-27T10:25:45.405Z,25.65
2018-05-27T10:28:15.027Z,26.05
2018-05-27T10:30:44.739Z,25.99
2018-05-27T10:33:14.813Z,26.24
2018-05-27T10:35:45.321Z,25.82
2018-05-27T10:38:15.976Z,26.51
2018-05-27T10:40:46.290Z,26.43
2018-05-27T10:43:15.998Z,26.54
2018-05-27T10:45:45.506Z,26.48
2018-05-27T10:48:15.685Z,26.73
2018-05-27T10:50:45.323Z,26.86
2018-05-27T10:53:15.419Z,27.47
2018-05-27T10:55:45.874Z,27.08
2018-05-27T10:58:15.652Z,27.38
2018-05-27T11:00:45.117Z,27.28
2018-05-27T11:03:14.828Z,27.16
2018-05-27T11:05:45.193Z,26.44
2018-05-27T11:08:15.810Z,26.21
2018-05-27T11:10:46.094Z,25.78
2018-05-27T11:13:15.907Z,26.49
2018-05-27T11:15:57.301Z,26.63
2018-05-27T11:18:28.246Z,26.19
2018-05-27T11:20:57.975Z,26.34
2018-05-27T11:23:28.288Z,26.84
2018-05-27T11:25:58.116Z,27.07
2018-05-27T11:28:28.627Z,27.07
2018-05-27T11:30:58.240Z,26.82
2018-05-27T11:33:28.092Z,26.51
2018-05-27T11:35:57.695Z,27.25
2018-05-27T11:38:27.767Z,26.96
2018-05-27T11:40:57.332Z,26.71
2018-05-27T11:43:26.795Z,27.46
2018-05-27T11:45:56.289Z,28.01
2018-05-27T11:48:25.742Z,27.49
2018-05-27T11:50:55.270Z,27.28
2018-05-27T11:53:24.817Z,27.41
2018-05-27T11:55:55.135Z,27.42
2018-05-27T11:58:24.647Z,27.28
2018-05-27T12:00:55.004Z,27.75
2018-05-27T12:03:24.541Z,28.17
2018-05-27T12:05:54.150Z,29.03
2018-05-27T12:08:23.808Z,29.07
2018-05-27T12:10:55.689Z,28.71
2018-05-27T12:13:26.522Z,28.90
2018-05-27T12:15:56.375Z,29.02
2018-05-27T12:18:26.046Z,28.81
2018-05-27T12:20:55.913Z,28.50
2018-05-27T12:23:26.303Z,29.07
2018-05-27T12:25:55.907Z,28.48
2018-05-27T12:28:25.508Z,28.81
2018-05-27T12:30:54.978Z,29.02
2018-05-27T12:33:24.411Z,28.41
2018-05-27T12:35:53.880Z,28.13
2018-05-27T12:38:23.302Z,28.78
2018-05-27T12:40:53.929Z,28.34
2018-05-27T12:43:23.386Z,27.54
2018-05-27T12:45:52.952Z,27.33
2018-05-27T12:48:22.430Z,27.47
2018-05-27T12:50:52.307Z,28.15
2018-05-27T12:53:21.769Z,28.37
2018-05-27T12:55:52.046Z,28.64
2018-05-27T12:58:21.702Z,28.52
2018-05-27T13:00:51.315Z,28.62
2018-05-27T13:03:20.943Z,28.66
2018-05-27T13:05:50.553Z,29.13
2018-05-27T13:08:20.099Z,29.21
2018-05-27T13:10:49.934Z,29.00
2018-05-27T13:13:32.176Z,29.53
2018-05-27T13:16:14.655Z,28.76
2018-05-27T13:18:45.541Z,28.78
2018-05-27T13:21:15.538Z,28.44
2018-05-27T13:23:45.287Z,28.15
2018-05-27T13:26:14.776Z,27.55
2018-05-27T13:28:44.625Z,27.46
2018-05-27T13:31:14.110Z,27.58
2018-05-27T13:33:44.478Z,27.79
2018-05-27T13:36:14.683Z,28.17
2018-05-27T13:38:44.272Z,27.68
2018-05-27T13:41:13.777Z,27.62
2018-05-27T13:43:44.858Z,27.91
2018-05-27T13:46:15.187Z,27.51
2018-05-27T13:48:44.764Z,27.61
2018-05-27T13:51:14.531Z,27.67
2018-05-27T13:53:44.360Z,27.29
2018-05-27T13:56:15.240Z,27.64
2018-05-27T13:58:45.008Z,27.36
2018-05-27T14:01:14.633Z,27.30
2018-05-27T14:03:44.217Z,27.44
2018-05-27T14:06:14.279Z,27.46
2018-05-27T14:08:43.992Z,27.37
2018-05-27T14:11:13.535Z,27.51
2018-05-27T14:13:43.034Z,27.31
2018-05-27T14:16:13.911Z,27.76
2018-05-27T14:18:43.592Z,27.41
2018-05-27T14:21:14.318Z,27.69
2018-05-27T14:23:44.664Z,27.69
2018-05-27T14:26:14.296Z,27.60
2018-05-27T14:28:43.923Z,27.66
2018-05-27T14:31:14.586Z,27.64
2018-05-27T14:33:44.199Z,27.47
2018-05-27T14:36:14.527Z,27.74
2018-05-27T14:38:51.330Z,28.19
2018-05-27T15:45:42.747Z,26.37
2018-05-27T16:10:13.141Z,25.46
2018-05-27T16:12:42.898Z,25.52
2018-05-27T16:15:16.544Z,25.58
2018-05-27T16:17:46.737Z,25.47
2018-05-27T16:20:17.313Z,25.44
2018-05-27T16:22:48.194Z,25.32
2018-05-27T16:25:18.677Z,25.29
2018-05-27T16:27:49.387Z,25.31
2018-05-27T16:30:20.675Z,25.33
2018-05-27T16:32:51.181Z,25.31
2018-05-27T16:35:20.877Z,25.22
2018-05-27T16:37:50.374Z,25.12
2018-05-27T16:40:22.297Z,25.19
2018-05-27T16:42:51.958Z,25.15
2018-05-27T16:45:21.459Z,25.06
2018-05-27T16:47:50.987Z,25.02
2018-05-27T16:50:21.413Z,25.08
2018-05-27T16:52:51.972Z,25.06
2018-05-27T16:55:21.941Z,25.11
2018-05-27T16:57:53.194Z,25.12
2018-05-27T17:00:25.623Z,25.10
2018-05-27T17:02:55.569Z,25.08
2018-05-27T17:05:26.111Z,24.96
2018-05-27T17:07:55.580Z,24.90
2018-05-27T17:10:25.119Z,24.80
2018-05-27T17:12:54.942Z,24.80
2018-05-27T17:15:24.368Z,24.75
2018-05-27T17:17:54.317Z,24.63
2018-05-27T17:20:28.278Z,24.56
2018-05-27T17:23:00.991Z,24.51
2018-05-27T17:28:25.434Z,24.26
2018-05-27T17:30:55.700Z,24.15
2018-05-27T17:33:25.211Z,24.07
2018-05-27T17:35:55.280Z,24.08
2018-05-27T17:38:26.289Z,24.04
2018-05-27T17:40:56.533Z,24.02
2018-05-27T17:43:27.919Z,24.17
2018-05-27T17:45:57.328Z,24.25
2018-05-27T17:48:26.890Z,24.30
2018-05-27T17:50:57.159Z,24.28
2018-05-27T17:53:26.648Z,24.28
2018-05-27T17:55:56.884Z,24.30
2018-05-27T17:58:26.580Z,24.33
2018-05-27T18:00:56.925Z,24.04
2018-05-27T18:03:26.591Z,23.66
2018-05-27T18:05:59.531Z,23.51
2018-05-27T18:08:43.991Z,23.27
2018-05-27T18:11:25.584Z,23.06
2018-05-27T18:13:58.921Z,22.95
2018-05-27T18:16:39.474Z,22.87
2018-05-27T18:19:23.249Z,22.84
2018-05-27T18:22:05.079Z,22.89
2018-05-27T18:24:45.120Z,22.92
2018-05-27T18:27:25.542Z,23.51
2018-05-27T18:29:58.817Z,23.88
2018-05-27T18:32:34.806Z,23.99
2018-05-27T18:35:04.860Z,24.13
2018-05-27T18:37:34.663Z,24.08
2018-05-27T18:40:06.710Z,23.91
2018-05-27T18:42:46.286Z,23.74
2018-05-27T18:45:17.313Z,23.64
2018-05-27T18:47:46.919Z,23.57
2018-05-27T18:50:17.979Z,23.54
2018-05-27T18:52:48.413Z,23.43
2018-05-27T18:55:19.014Z,23.32
2018-05-27T18:57:54.312Z,23.26
2018-05-27T19:00:24.017Z,23.23
2018-05-27T19:02:55.033Z,23.23
2018-05-27T19:05:24.561Z,23.30
2018-05-27T19:07:54.045Z,23.57
2018-05-27T19:10:23.634Z,23.70
2018-05-27T19:12:53.345Z,23.69
2018-05-27T19:15:22.893Z,23.56
2018-05-27T19:17:52.602Z,23.15
2018-05-27T19:20:22.136Z,22.76
2018-05-27T19:22:52.522Z,22.92
2018-05-27T19:25:22.409Z,23.10
2018-05-27T19:27:51.987Z,23.13
2018-05-27T19:30:21.721Z,23.14
2018-05-27T19:32:53.254Z,23.32
2018-05-27T19:35:23.659Z,23.27
2018-05-27T19:37:53.273Z,22.90
2018-05-27T19:40:22.826Z,22.39
2018-05-27T19:42:52.335Z,21.90
2018-05-27T19:45:22.686Z,21.60
2018-05-27T19:47:52.200Z,21.29
2018-05-27T19:50:23.163Z,21.09
2018-05-27T19:52:52.694Z,21.61
2018-05-27T19:55:22.355Z,22.01
2018-05-27T19:57:51.980Z,22.31
2018-05-27T20:00:22.199Z,22.45
2018-05-27T20:02:51.862Z,22.32
2018-05-27T20:05:21.644Z,21.95
2018-05-27T20:07:52.078Z,21.59
2018-05-27T20:14:00.833Z,21.44
2018-05-27T20:16:48.572Z,21.46
2018-05-27T20:22:35.272Z,20.92
2018-05-27T20:25:06.029Z,20.70
2018-05-27T20:27:36.309Z,20.59
2018-05-27T20:30:06.060Z,20.44
2018-05-27T20:32:36.325Z,20.53
2018-05-27T20:35:05.942Z,20.52
2018-05-27T20:37:35.608Z,20.45
2018-05-27T20:40:05.433Z,20.45
2018-05-27T20:42:35.026Z,20.32
2018-05-27T20:45:05.526Z,20.38
2018-05-27T20:47:35.268Z,20.53
2018-05-27T20:50:04.910Z,20.66
2018-05-27T20:52:34.597Z,20.74
2018-05-27T20:55:04.160Z,20.77
2018-05-27T20:57:33.671Z,20.77
2018-05-27T21:00:03.229Z,20.66
2018-05-27T21:02:32.803Z,20.01
2018-05-27T21:05:03.761Z,19.60
2018-05-27T21:07:34.554Z,19.39
2018-05-27T21:10:04.420Z,19.32
2018-05-27T21:12:34.626Z,19.29
2018-05-27T21:15:05.070Z,19.37
2018-05-27T21:17:34.784Z,19.66
2018-05-27T21:20:05.395Z,20.09
2018-05-27T21:22:35.976Z,20.18
2018-05-27T21:25:05.454Z,20.31
2018-05-27T21:27:35.747Z,20.40
2018-05-27T21:30:05.588Z,20.48
2018-05-27T21:32:35.161Z,20.56
2018-05-27T21:35:05.620Z,20.67
2018-05-27T21:37:35.097Z,20.60
2018-05-27T21:40:05.554Z,20.64
2018-05-27T21:42:35.334Z,20.59
2018-05-27T21:45:05.750Z,20.82
2018-05-27T21:47:35.252Z,20.98
2018-05-27T21:50:05.080Z,21.12
2018-05-27T21:52:34.586Z,21.33
2018-05-27T21:55:07.213Z,21.40
2018-05-27T21:57:36.811Z,21.56
2018-05-27T22:00:06.890Z,21.93
2018-05-27T22:02:37.053Z,22.05
2018-05-27T22:05:06.651Z,22.11
2018-05-27T22:07:37.015Z,22.15
2018-05-27T22:10:06.896Z,21.97
2018-05-27T22:12:36.577Z,21.80
2018-05-27T22:15:07.017Z,21.67
2018-05-27T22:17:37.395Z,21.66
2018-05-27T22:20:08.406Z,21.61
2018-05-27T22:22:38.114Z,21.49
2018-05-27T22:25:07.855Z,21.36
2018-05-27T22:27:37.547Z,21.18
2018-05-27T22:30:07.096Z,20.91
2018-05-27T22:32:38.179Z,20.67
2018-05-27T22:35:07.777Z,20.44
2018-05-27T22:37:38.135Z,20.04
2018-05-27T22:40:07.704Z,19.74
2018-05-27T22:42:38.184Z,19.37
2018-05-27T22:45:08.261Z,19.12
2018-05-27T22:47:38.799Z,18.91
2018-05-27T22:50:09.383Z,18.71
2018-05-27T22:52:38.875Z,18.56
2018-05-27T22:55:08.583Z,18.48
2018-05-27T22:57:38.150Z,18.52
2018-05-27T23:00:07.766Z,18.53
2018-05-27T23:02:37.051Z,18.61
2018-05-27T23:05:06.898Z,18.67
2018-05-27T23:07:36.367Z,18.86
2018-05-27T23:10:05.891Z,18.93
2018-05-27T23:12:35.369Z,18.96
2018-05-27T23:15:04.950Z,18.94
2018-05-27T23:17:35.740Z,18.99
2018-05-27T23:20:05.611Z,19.15
2018-05-27T23:22:36.203Z,19.54
2018-05-27T23:25:06.137Z,20.31
2018-05-27T23:27:35.751Z,20.70
2018-05-27T23:30:06.969Z,21.15
2018-05-27T23:32:37.544Z,21.19
2018-05-27T23:35:07.146Z,21.23
2018-05-27T23:37:37.530Z,21.10
2018-05-27T23:40:07.228Z,21.14
2018-05-27T23:42:37.631Z,21.29
2018-05-27T23:45:07.928Z,21.28
2018-05-27T23:47:37.578Z,21.22
2018-05-27T23:50:07.777Z,21.20
2018-05-27T23:52:38.148Z,21.04
2018-05-27T23:55:07.945Z,20.79
2018-05-27T23:57:37.445Z,20.51
